Mazie, Kentucky
Current Conditions -  °F | °C
As of 8:15 PM on Sunday 23 Nov 2014 (Local Time) from KSJS Reporting Station
Light Rain Light Rain  
Wind Chill: 58°   Ceiling: 11000
Heat Index: 58°   Visibility: 10mi
Dew Point: 54°   Wind: 17mph
Humidity: 85%   Direction: 150°SSE
Pressure: 29.54"   Gusts: 25mph
Location:  38.03°N, 82.97°W
Report Text: KSJS 240115Z AUTO 15015G22KT 10SM -RA OVC110 15/12 A2954 RMK AO2 T01470122
Loading
Personal Weather Stations






























Interactive Weather Map New forecast layout! Learn more

10-Day Weather Forecast

Advertisements
Track Severe Weather on mobile